Time;durP1;ratioP1;P1;durP2;ratioP2;P2;SDS_P1;SDS_P2;PMS_P1;PMS_P2;Temp;Humidity;BMP_temperature;BMP_pressure;BME280_temperature;BME280_humidity;BME280_pressure;Samples;Min_cycle;Max_cycle;Signal;HPM_P1;HPM_P2
2022/05/21 00:01:44;;;;;;;12.40;8.68;;;;;;;11.33;100.00;101650.97;5061161;28;20034;-82
2022/05/21 00:04:09;;;;;;;11.77;8.52;;;;;;;11.29;100.00;101647.56;5054582;28;20036;-83
2022/05/21 00:06:35;;;;;;;11.75;8.43;;;;;;;11.28;100.00;101645.84;5080264;28;20055;-82
2022/05/21 00:09:01;;;;;;;13.57;8.45;;;;;;;11.31;100.00;101651.06;5057951;28;20391;-82
2022/05/21 00:11:27;;;;;;;17.30;9.25;;;;;;;11.34;100.00;101641.78;5049732;28;20032;-82
2022/05/21 00:13:55;;;;;;;16.00;8.50;;;;;;;11.32;100.00;101651.97;5063297;28;20467;-81
2022/05/21 00:16:22;;;;;;;16.10;9.23;;;;;;;11.30;100.00;101651.22;5063133;28;20032;-82
2022/05/21 00:18:48;;;;;;;14.10;8.32;;;;;;;11.29;100.00;101650.31;5056645;28;20047;-81
2022/05/21 00:21:14;;;;;;;14.73;8.48;;;;;;;11.36;100.00;101653.50;5055861;28;20039;-81
2022/05/21 00:23:40;;;;;;;11.65;8.18;;;;;;;11.30;100.00;101652.06;5050547;28;20040;-81
2022/05/21 00:26:09;;;;;;;11.90;7.80;;;;;;;11.34;100.00;101652.75;5067991;28;20032;-81
2022/05/21 00:28:37;;;;;;;14.27;7.90;;;;;;;11.33;100.00;101657.34;5081783;28;20395;-82
2022/05/21 00:31:04;;;;;;;13.02;7.50;;;;;;;11.33;100.00;101649.13;5098287;28;20376;-82
2022/05/21 00:33:30;;;;;;;12.52;7.82;;;;;;;11.43;100.00;101653.94;5080047;28;20099;-82
2022/05/21 00:35:56;;;;;;;12.65;7.63;;;;;;;11.32;100.00;101650.09;5065791;28;20039;-82
2022/05/21 00:38:22;;;;;;;12.52;7.68;;;;;;;11.33;100.00;101650.97;5078214;28;20058;-81
2022/05/21 00:40:49;;;;;;;11.25;7.13;;;;;;;11.30;100.00;101646.59;5074087;28;20031;-81
2022/05/21 00:43:40;;;;;;;12.23;7.20;;;;;;;11.31;100.00;101645.59;5093700;28;20036;-82
2022/05/21 00:46:13;;;;;;;19.30;7.53;;;;;;;11.37;100.00;101655.28;5081033;28;20032;-82
2022/05/21 00:48:39;;;;;;;;;;;;;;;11.32;100.00;101639.13;5105598;28;20096;-80
2022/05/21 00:51:09;;;;;;;10.30;7.10;;;;;;;11.24;100.00;101640.66;5070151;28;20379;-81
2022/05/21 00:53:35;;;;;;;15.18;6.63;;;;;;;11.30;100.00;101648.47;5095410;28;20039;-81
2022/05/21 00:56:02;;;;;;;16.50;7.35;;;;;;;11.26;100.00;101646.91;5086428;28;20428;-81
2022/05/21 01:01:15;;;;;;;17.48;7.45;;;;;;;11.26;100.00;101653.25;5094167;28;20039;-81
2022/05/21 01:03:43;;;;;;;16.52;6.63;;;;;;;11.20;100.00;101645.50;5067414;28;20119;-80
2022/05/21 01:06:11;;;;;;;13.88;6.70;;;;;;;11.17;100.00;101657.53;5079995;28;20036;-81
2022/05/21 01:08:38;;;;;;;12.75;6.15;;;;;;;11.27;100.00;101655.03;5063858;28;20032;-80
2022/05/21 01:11:10;;;;;;;13.98;7.03;;;;;;;11.25;100.00;101661.59;5059738;28;20044;-81
2022/05/21 01:13:38;;;;;;;19.08;7.72;;;;;;;11.30;100.00;101664.91;5061335;28;20024;-80
2022/05/21 01:16:04;;;;;;;9.63;5.97;;;;;;;11.37;100.00;101669.84;5092814;28;20445;-80
2022/05/21 01:18:30;;;;;;;14.30;6.22;;;;;;;11.45;100.00;101669.31;5066871;28;20084;-81
2022/05/21 01:20:58;;;;;;;10.68;6.15;;;;;;;11.49;100.00;101662.63;5059218;28;20119;-81
2022/05/21 01:23:25;;;;;;;9.40;5.45;;;;;;;11.40;100.00;101660.53;5061531;28;20028;-82
2022/05/21 01:25:53;;;;;;;8.70;5.28;;;;;;;11.36;100.00;101658.97;5061725;28;20059;-81
2022/05/21 01:28:22;;;;;;;6.68;5.13;;;;;;;11.45;100.00;101652.88;5057435;28;20068;-80
2022/05/21 01:30:54;;;;;;;14.35;5.30;;;;;;;11.53;100.00;101652.34;5058771;28;20023;-79
2022/05/21 01:33:26;;;;;;;10.38;4.85;;;;;;;11.47;100.00;101655.50;5058538;28;20501;-80
2022/05/21 01:35:51;;;;;;;10.03;4.87;;;;;;;11.43;100.00;101659.44;5062877;28;20066;-80
2022/05/21 01:38:20;;;;;;;6.55;4.70;;;;;;;11.51;100.00;101657.94;5046434;28;20082;-81
2022/05/21 01:40:45;;;;;;;12.75;5.20;;;;;;;11.46;100.00;101656.47;5097569;28;20422;-81
2022/05/21 01:45:56;;;;;;;5.20;3.75;;;;;;;11.55;100.00;101653.97;5098320;28;20024;-82
2022/05/21 01:48:26;;;;;;;10.45;4.28;;;;;;;11.61;100.00;101638.06;5098583;28;20063;-82
2022/05/21 01:50:52;;;;;;;6.43;3.50;;;;;;;11.59;100.00;101646.41;5083212;28;20035;-82
2022/05/21 01:53:19;;;;;;;9.35;4.30;;;;;;;11.69;100.00;101643.88;5052410;28;20038;-83
2022/05/21 01:55:46;;;;;;;10.65;3.83;;;;;;;11.63;100.00;101644.34;5066554;28;20035;-82
2022/05/21 01:58:12;;;;;;;11.88;4.00;;;;;;;11.72;100.00;101650.06;5067776;28;20053;-81
2022/05/21 02:00:38;;;;;;;11.02;3.25;;;;;;;11.64;100.00;101646.97;5061402;28;20115;-82
2022/05/21 02:03:04;;;;;;;16.33;4.40;;;;;;;11.67;100.00;101648.59;5075035;28;20036;-83
2022/05/21 02:05:30;;;;;;;9.25;3.28;;;;;;;11.65;100.00;101642.34;5083781;28;20109;-81
2022/05/21 02:07:56;;;;;;;9.35;3.17;;;;;;;11.65;100.00;101645.09;5064561;28;20041;-82
2022/05/21 02:10:22;;;;;;;9.48;3.47;;;;;;;11.68;100.00;101651.25;5060719;28;20036;-81
2022/05/21 02:12:48;;;;;;;10.82;3.88;;;;;;;11.90;100.00;101650.59;5082628;28;20490;-81
2022/05/21 02:15:14;;;;;;;12.18;4.78;;;;;;;11.74;100.00;101655.41;5081946;28;20044;-81
2022/05/21 02:17:39;;;;;;;10.63;3.10;;;;;;;11.83;100.00;101649.25;5067217;28;20047;-82
2022/05/21 02:20:06;;;;;;;13.60;3.92;;;;;;;11.82;100.00;101650.25;5042916;28;20064;-81
2022/05/21 02:22:32;;;;;;;11.27;3.22;;;;;;;11.99;100.00;101659.19;5081884;28;20048;-83
2022/05/21 02:24:58;;;;;;;9.57;3.20;;;;;;;11.89;100.00;101656.19;5062588;28;20028;-82
2022/05/21 02:27:23;;;;;;;11.15;3.85;;;;;;;11.78;100.00;101659.69;5053425;28;20043;-83
2022/05/21 02:29:50;;;;;;;12.57;3.53;;;;;;;11.78;100.00;101651.47;5051684;28;20057;-83
2022/05/21 02:32:17;;;;;;;9.35;3.92;;;;;;;11.94;100.00;101659.50;5056517;28;20032;-82
2022/05/21 02:34:43;;;;;;;9.73;3.53;;;;;;;11.99;100.00;101649.06;5041921;28;20044;-82
2022/05/21 02:39:53;;;;;;;12.98;3.75;;;;;;;11.89;100.00;101656.19;5092079;28;20559;-81
2022/05/21 02:45:05;;;;;;;19.95;4.10;;;;;;;11.95;100.00;101653.03;5083469;28;20039;-82
2022/05/21 02:47:31;;;;;;;15.55;4.18;;;;;;;11.92;100.00;101650.50;5054825;28;20448;-81
2022/05/21 02:49:57;;;;;;;17.70;3.92;;;;;;;11.89;100.00;101648.84;5067069;28;20036;-81
2022/05/21 02:52:23;;;;;;;12.05;3.50;;;;;;;12.02;100.00;101647.97;5095093;28;20039;-81
2022/05/21 02:54:48;;;;;;;9.30;3.60;;;;;;;12.00;100.00;101647.19;5060030;28;20056;-82
2022/05/21 02:57:15;;;;;;;16.02;4.32;;;;;;;12.01;100.00;101643.47;5081922;28;20032;-82
2022/05/21 02:59:40;;;;;;;16.23;4.15;;;;;;;12.00;100.00;101648.06;5035968;28;20043;-83
2022/05/21 03:02:06;;;;;;;10.40;3.90;;;;;;;12.10;100.00;101651.03;5066155;28;20394;-84
2022/05/21 03:04:32;;;;;;;15.10;4.30;;;;;;;12.21;100.00;101659.34;5100407;28;20039;-83
2022/05/21 03:06:58;;;;;;;13.38;3.85;;;;;;;12.03;100.00;101650.59;5049283;28;20071;-82
2022/05/21 03:12:10;;;;;;;14.05;4.78;;;;;;;11.93;100.00;101652.25;5089939;28;20035;-82
2022/05/21 03:14:37;;;;;;;14.55;4.10;;;;;;;12.16;100.00;101652.47;5027159;28;20029;-81
2022/05/21 03:17:03;;;;;;;17.25;4.22;;;;;;;12.04;100.00;101662.47;5066609;28;20419;-82
2022/05/21 03:19:30;;;;;;;12.95;4.18;;;;;;;11.98;100.00;101650.06;5076861;28;20190;-83
2022/05/21 03:21:57;;;;;;;17.20;4.30;;;;;;;11.98;100.00;101657.44;5078579;28;20044;-82
2022/05/21 03:24:22;;;;;;;19.90;4.20;;;;;;;12.01;100.00;101655.31;5077036;28;20378;-81
2022/05/21 03:26:48;;;;;;;15.38;4.65;;;;;;;12.04;100.00;101649.63;5082472;28;20044;-80
2022/05/21 03:29:14;;;;;;;11.52;4.38;;;;;;;11.90;100.00;101647.84;5062836;28;20094;-80
2022/05/21 03:31:39;;;;;;;14.07;4.03;;;;;;;12.02;100.00;101642.47;5069062;28;20028;-82
2022/05/21 03:34:05;;;;;;;13.20;4.13;;;;;;;11.92;100.00;101648.66;5054297;28;20024;-82
2022/05/21 03:36:32;;;;;;;13.75;5.78;;;;;;;11.84;100.00;101637.31;5063025;28;20063;-82
2022/05/21 03:38:58;;;;;;;16.77;4.93;;;;;;;12.08;100.00;101651.13;5051408;28;20033;-82
2022/05/21 03:41:25;;;;;;;18.98;4.38;;;;;;;12.13;100.00;101654.44;5072646;28;20189;-81
2022/05/21 03:43:52;;;;;;;22.10;5.00;;;;;;;12.10;100.00;101660.16;5079178;28;20028;-81
2022/05/21 03:46:18;;;;;;;21.25;5.15;;;;;;;11.99;100.00;101653.69;5092285;28;20516;-82
2022/05/21 03:48:44;;;;;;;11.30;4.38;;;;;;;12.09;100.00;101641.06;5080559;28;20032;-81
2022/05/21 03:51:10;;;;;;;17.20;5.28;;;;;;;12.05;100.00;101640.41;5043053;28;20040;-82
2022/05/21 03:53:36;;;;;;;17.88;4.90;;;;;;;12.18;100.00;101655.97;5045354;28;20067;-81
2022/05/21 03:56:03;;;;;;;18.80;5.13;;;;;;;12.20;100.00;101657.63;5048710;28;20039;-81
2022/05/21 03:58:29;;;;;;;23.33;5.57;;;;;;;12.05;100.00;101661.47;5080577;28;20028;-83
2022/05/21 04:00:54;;;;;;;15.23;5.38;;;;;;;12.08;100.00;101653.88;5079102;28;20024;-81
2022/05/21 04:03:20;;;;;;;11.13;5.35;;;;;;;11.98;100.00;101665.66;5074851;28;20502;-82
2022/05/21 04:05:47;;;;;;;19.33;6.13;;;;;;;11.96;100.00;101654.78;5064776;28;20143;-83
2022/05/21 04:08:16;;;;;;;23.48;6.05;;;;;;;11.99;100.00;101664.69;5067971;28;20518;-81
2022/05/21 04:10:41;;;;;;;12.65;5.47;;;;;;;11.90;100.00;101668.91;5077928;28;20032;-83
2022/05/21 04:13:07;;;;;;;17.42;5.80;;;;;;;12.03;100.00;101675.31;5051806;28;20388;-80
2022/05/21 04:15:34;;;;;;;14.25;5.53;;;;;;;12.07;100.00;101674.09;5065089;28;20035;-82
2022/05/21 04:18:01;;;;;;;24.65;6.13;;;;;;;12.02;100.00;101679.06;5081768;28;20114;-81
2022/05/21 04:20:27;;;;;;;20.90;6.07;;;;;;;11.93;100.00;101672.34;5048910;28;20032;-82
2022/05/21 04:22:53;;;;;;;17.05;5.22;;;;;;;11.97;100.00;101680.34;5060647;28;20044;-81
2022/05/21 04:25:19;;;;;;;16.52;5.70;;;;;;;12.02;100.00;101681.81;5055726;28;20044;-80
2022/05/21 04:27:44;;;;;;;11.27;5.20;;;;;;;11.92;100.00;101678.84;5041364;28;20029;-83
2022/05/21 04:30:16;;;;;;;19.20;5.70;;;;;;;11.97;100.00;101686.75;5080088;28;20030;-82
2022/05/21 04:32:44;;;;;;;15.02;5.63;;;;;;;12.05;100.00;101688.91;5068860;28;20074;-82
2022/05/21 04:35:10;;;;;;;9.93;5.15;;;;;;;12.08;100.00;101697.81;5059751;28;20028;-83
2022/05/21 04:37:38;;;;;;;18.10;5.80;;;;;;;12.12;100.00;101696.59;5077621;28;20029;-82
2022/05/21 04:40:07;;;;;;;13.05;5.43;;;;;;;12.22;100.00;101706.94;5064750;28;20104;-80
2022/05/21 04:42:33;;;;;;;17.73;5.75;;;;;;;12.20;100.00;101698.81;5072344;28;20479;-82
2022/05/21 04:44:59;;;;;;;24.10;6.13;;;;;;;12.09;100.00;101704.19;5039635;28;20115;-82
2022/05/21 04:47:25;;;;;;;18.52;6.22;;;;;;;12.06;100.00;101704.41;5061233;28;20037;-83
2022/05/21 04:49:50;;;;;;;22.67;6.55;;;;;;;12.19;100.00;101713.50;5060509;28;20054;-82
2022/05/21 04:52:16;;;;;;;13.15;5.95;;;;;;;12.23;100.00;101709.56;5061216;28;20047;-83
2022/05/21 04:54:42;;;;;;;15.10;6.65;;;;;;;12.18;100.00;101713.63;5078183;28;20028;-82
2022/05/21 04:57:07;;;;;;;12.00;6.05;;;;;;;12.20;100.00;101714.38;5058692;28;20040;-81
2022/05/21 04:59:33;;;;;;;18.60;5.65;;;;;;;12.07;100.00;101697.94;5024158;28;20280;-81
2022/05/21 05:02:00;;;;;;;21.25;6.10;;;;;;;12.16;100.00;101712.88;5079465;28;20028;-82
2022/05/21 05:04:26;;;;;;;17.75;6.05;;;;;;;12.23;100.00;101714.16;5062961;28;20059;-83
2022/05/21 05:06:51;;;;;;;19.80;5.78;;;;;;;12.05;100.00;101705.38;5038705;28;20032;-82
2022/05/21 05:09:21;;;;;;;22.88;6.93;;;;;;;12.22;100.00;101721.53;5061778;28;20399;-80
2022/05/21 05:11:47;;;;;;;20.65;7.13;;;;;;;12.27;100.00;101718.47;5059797;28;20063;-81
2022/05/21 05:14:14;;;;;;;22.92;7.18;;;;;;;12.27;100.00;101707.47;5081514;28;20036;-80
2022/05/21 05:16:39;;;;;;;23.55;6.95;;;;;;;12.36;100.00;101712.28;5064931;28;20044;-82
2022/05/21 05:19:05;;;;;;;18.80;6.40;;;;;;;12.32;100.00;101721.75;5064664;28;20368;-83
2022/05/21 05:21:32;;;;;;;21.83;7.50;;;;;;;12.32;100.00;101725.34;5050251;28;20055;-83
2022/05/21 05:23:57;;;;;;;25.00;7.65;;;;;;;12.38;100.00;101709.41;5067376;28;20031;-82
2022/05/21 05:26:23;;;;;;;23.05;8.93;;;;;;;12.46;100.00;101715.22;5067591;28;20097;-82
2022/05/21 05:28:50;;;;;;;25.98;8.63;;;;;;;12.47;100.00;101723.34;5085317;28;20032;-78
2022/05/21 05:31:15;;;;;;;28.38;9.20;;;;;;;12.36;100.00;101726.00;5082638;28;20095;-82
2022/05/21 05:33:41;;;;;;;26.50;8.93;;;;;;;12.55;100.00;101733.78;5067760;28;20032;-80
2022/05/21 05:36:07;;;;;;;25.83;9.48;;;;;;;12.60;100.00;101727.97;5051379;28;20032;-80
2022/05/21 05:38:33;;;;;;;30.13;8.80;;;;;;;12.57;100.00;101731.81;5083782;28;20505;-79
2022/05/21 05:40:58;;;;;;;36.78;10.52;;;;;;;12.62;100.00;101737.84;5049905;28;20122;-81
2022/05/21 05:43:24;;;;;;;29.83;9.45;;;;;;;12.70;100.00;101742.78;5067320;28;20028;-79
2022/05/21 05:45:53;;;;;;;27.77;9.13;;;;;;;12.77;100.00;101740.44;5061598;28;20034;-80
2022/05/21 05:48:19;;;;;;;22.88;9.18;;;;;;;12.91;100.00;101742.19;5069822;28;20051;-80
2022/05/21 05:50:45;;;;;;;29.95;9.15;;;;;;;12.93;100.00;101742.94;5069218;28;20028;-78
2022/05/21 05:53:11;;;;;;;25.35;9.32;;;;;;;12.83;100.00;101745.50;5067769;28;20042;-78
2022/05/21 05:55:41;;;;;;;29.15;9.93;;;;;;;12.92;100.00;101741.16;5048094;28;20036;-78
2022/05/21 06:00:52;;;;;;;25.80;9.13;;;;;;;12.97;100.00;101741.69;5067400;28;20036;-78
2022/05/21 06:03:20;;;;;;;27.58;10.05;;;;;;;13.06;100.00;101744.63;5064311;28;20085;-78
2022/05/21 06:05:49;;;;;;;28.42;11.30;;;;;;;12.79;100.00;101741.19;5082149;28;20036;-78
2022/05/21 06:08:15;;;;;;;40.08;11.55;;;;;;;12.59;100.00;101757.31;5099812;28;20028;-77
2022/05/21 06:10:43;;;;;;;24.55;10.88;;;;;;;12.78;100.00;101754.06;5094235;28;20490;-81
2022/05/21 06:13:09;;;;;;;29.67;10.50;;;;;;;12.80;100.00;101753.97;5057921;28;20055;-79
2022/05/21 06:15:35;;;;;;;26.38;10.77;;;;;;;12.91;100.00;101754.03;5062461;28;20033;-80
2022/05/21 06:18:08;;;;;;;40.05;11.25;;;;;;;12.97;100.00;101759.09;5062429;28;20039;-78
2022/05/21 06:20:34;;;;;;;27.98;11.27;;;;;;;12.95;100.00;101761.06;5062809;28;20032;-78
2022/05/21 06:23:00;;;;;;;31.02;11.30;;;;;;;12.82;100.00;101760.22;5064049;28;20126;-78
2022/05/21 06:25:29;;;;;;;37.08;12.40;;;;;;;12.94;100.00;101759.31;5094403;28;20134;-79
2022/05/21 06:27:54;;;;;;;31.50;11.98;;;;;;;12.92;100.00;101755.81;5061976;28;20032;-80
2022/05/21 06:30:24;;;;;;;32.63;12.07;;;;;;;13.02;100.00;101758.75;5070389;28;20040;-79
2022/05/21 06:32:50;;;;;;;35.85;11.70;;;;;;;13.08;100.00;101760.16;5064483;28;20113;-79
2022/05/21 06:35:17;;;;;;;30.90;11.52;;;;;;;12.95;100.00;101769.28;5042287;28;20486;-80
2022/05/21 06:37:43;;;;;;;34.13;11.88;;;;;;;13.13;100.00;101767.03;5064169;28;20047;-80
2022/05/21 06:40:12;;;;;;;33.88;11.20;;;;;;;13.08;100.00;101774.75;5063794;28;20063;-77
2022/05/21 06:42:38;;;;;;;36.78;12.30;;;;;;;13.05;100.00;101773.13;5080565;28;20105;-78
2022/05/21 06:45:05;;;;;;;30.35;11.23;;;;;;;13.36;100.00;101784.63;5094178;28;20024;-79
2022/05/21 06:47:30;;;;;;;34.83;12.35;;;;;;;13.33;100.00;101773.84;5079549;28;20033;-79
2022/05/21 06:49:56;;;;;;;36.40;12.93;;;;;;;13.15;100.00;101780.69;5081220;28;20091;-79
2022/05/21 06:52:27;;;;;;;30.15;11.60;;;;;;;13.34;100.00;101780.22;5050275;28;20036;-80
2022/05/21 06:54:54;;;;;;;31.27;11.70;;;;;;;13.57;100.00;101776.56;5079876;28;20119;-79
2022/05/21 06:57:21;;;;;;;40.08;12.45;;;;;;;13.63;100.00;101783.47;5045070;28;20040;-79
2022/05/21 06:59:47;;;;;;;28.20;11.10;;;;;;;13.60;100.00;101783.72;5098391;28;20036;-78
2022/05/21 07:02:13;;;;;;;32.28;12.25;;;;;;;13.73;100.00;101784.50;5075098;28;20039;-80
2022/05/21 07:07:35;;;;;;;30.27;11.02;;;;;;;13.81;100.00;101791.28;5098967;28;20039;-79
2022/05/21 07:10:07;;;;;;;36.10;11.60;;;;;;;13.59;100.00;101791.09;5035589;28;20081;-80
2022/05/21 07:12:34;;;;;;;31.85;11.27;;;;;;;13.71;100.00;101791.16;5100638;28;20103;-78
2022/05/21 07:15:00;;;;;;;31.23;10.02;;;;;;;13.91;100.00;101786.84;5032090;28;20043;-78
2022/05/21 07:17:26;;;;;;;26.63;10.18;;;;;;;14.31;100.00;101787.31;5080758;28;20032;-79
2022/05/21 07:19:51;;;;;;;31.05;10.45;;;;;;;14.18;100.00;101785.66;5079912;28;20121;-79
2022/05/21 07:22:17;;;;;;;34.28;11.63;;;;;;;14.88;100.00;101799.25;5056170;28;20151;-78
2022/05/21 07:24:43;;;;;;;23.98;10.93;;;;;;;14.79;100.00;101797.28;5058153;28;20483;-80
2022/05/21 07:27:12;;;;;;;29.95;11.77;;;;;;;14.50;100.00;101805.97;5056080;28;20480;-80
2022/05/21 07:29:39;;;;;;;35.33;12.63;;;;;;;14.45;100.00;101813.75;5079337;28;20025;-77
2022/05/21 07:32:22;;;;;;;30.85;12.65;;;;;;;14.58;100.00;101821.91;5060623;28;20455;-79
2022/05/21 07:34:48;;;;;;;36.30;11.82;;;;;;;14.56;100.00;101817.50;5077026;28;20036;-80
2022/05/21 07:37:14;;;;;;;33.17;11.38;;;;;;;14.87;100.00;101813.16;5075909;28;20051;-78
2022/05/21 07:39:40;;;;;;;34.28;11.40;;;;;;;14.68;100.00;101820.19;5076879;28;20063;-78
2022/05/21 07:42:06;;;;;;;30.98;11.05;;;;;;;14.58;100.00;101812.78;5059449;28;20033;-78
2022/05/21 07:44:31;;;;;;;29.48;10.95;;;;;;;14.53;100.00;101808.50;5076388;28;20035;-79
2022/05/21 07:46:57;;;;;;;28.83;11.07;;;;;;;14.59;100.00;101809.91;5058587;28;20750;-79
2022/05/21 07:49:23;;;;;;;28.90;10.52;;;;;;;14.45;100.00;101823.91;5043338;28;20037;-79
2022/05/21 07:51:49;;;;;;;28.90;10.38;;;;;;;14.53;100.00;101819.53;5043686;28;20033;-79
2022/05/21 07:54:15;;;;;;;25.65;10.18;;;;;;;14.79;100.00;101827.59;5059701;28;20060;-80
2022/05/21 07:56:41;;;;;;;25.77;10.30;;;;;;;14.64;100.00;101829.72;5077060;28;20032;-79
2022/05/21 07:59:07;;;;;;;34.63;10.57;;;;;;;14.55;100.00;101832.31;5076761;28;20044;-79
2022/05/21 08:01:33;;;;;;;23.02;10.50;;;;;;;15.23;100.00;101833.19;5075918;28;20037;-79
2022/05/21 08:03:59;;;;;;;28.77;11.77;;;;;;;15.45;100.00;101829.53;5075734;28;20036;-81
2022/05/21 08:06:24;;;;;;;24.73;10.20;;;;;;;15.37;100.00;101835.69;5058142;28;20036;-79
2022/05/21 08:08:54;;;;;;;25.60;10.40;;;;;;;15.58;100.00;101835.75;5057556;28;20028;-78
2022/05/21 08:11:21;;;;;;;31.65;10.98;;;;;;;15.41;100.00;101839.06;5076796;28;20033;-79
2022/05/21 08:13:47;;;;;;;27.00;10.38;;;;;;;15.70;100.00;101836.59;5074127;28;20070;-80
2022/05/21 08:16:14;;;;;;;26.55;11.68;;;;;;;15.37;100.00;101841.19;5040012;28;20040;-80
2022/05/21 08:18:41;;;;;;;33.58;10.85;;;;;;;15.14;100.00;101843.13;5059670;28;20033;-80
2022/05/21 08:21:07;;;;;;;27.63;11.45;;;;;;;15.61;100.00;101842.91;5059210;28;20096;-79
2022/05/21 08:29:00;;;;;;;34.53;11.27;;;;;;;16.71;100.00;101843.47;5063603;28;20107;-78
2022/05/21 08:31:26;;;;;;;24.27;11.77;;;;;;;16.32;100.00;101837.72;5057862;28;20072;-79
2022/05/21 08:33:52;;;;;;;29.90;11.38;;;;;;;17.11;100.00;101841.78;5023458;28;20490;-78
2022/05/21 08:36:19;;;;;;;31.85;10.70;;;;;;;17.61;100.00;101833.47;5073998;28;20047;-79
2022/05/21 08:38:45;;;;;;;33.53;10.95;;;;;;;17.44;100.00;101843.34;5058666;28;20118;-78
2022/05/21 08:41:11;;;;;;;22.52;10.52;;;;;;;17.32;100.00;101833.41;5076952;28;20041;-79
2022/05/21 08:43:58;;;;;;;24.33;9.98;;;;;;;16.73;100.00;101838.69;5073256;28;20029;-78
2022/05/21 08:46:46;;;;;;;26.42;9.43;;;;;;;17.18;100.00;101834.66;5073323;28;20078;-80
2022/05/21 08:49:24;;;;;;;23.67;10.02;;;;;;;17.96;100.00;101834.84;5075991;28;20029;-78
2022/05/21 08:51:56;;;;;;;21.85;8.02;;;;;;;18.67;100.00;101829.91;5077918;28;20300;-80
2022/05/21 08:54:28;;;;;;;21.50;6.40;;;;;;;18.26;100.00;101837.59;5076540;28;20032;-79
2022/05/21 08:56:56;;;;;;;13.13;5.18;;;;;;;18.50;99.99;101840.75;5076304;28;20086;-80
2022/05/21 08:59:30;;;;;;;21.70;6.57;;;;;;;17.75;100.00;101843.25;5059972;28;20024;-83
2022/05/21 09:01:56;;;;;;;19.63;6.22;;;;;;;18.05;100.00;101848.84;5077168;28;20044;-81
2022/05/21 09:04:23;;;;;;;21.33;6.97;;;;;;;17.36;100.00;101828.47;5061661;28;20033;-80
2022/05/21 09:07:04;;;;;;;18.10;6.32;;;;;;;18.41;100.00;101827.78;5057241;28;20155;-80
2022/05/21 09:09:45;;;;;;;17.90;7.00;;;;;;;19.42;100.00;101828.00;5078052;28;20441;-80
2022/05/21 09:12:23;;;;;;;21.55;7.38;;;;;;;19.59;96.92;101830.94;5074909;28;20126;-82
2022/05/21 09:14:52;;;;;;;18.00;7.28;;;;;;;19.46;97.86;101826.66;5061554;28;20037;-83
2022/05/21 09:17:23;;;;;;;27.17;7.50;;;;;;;18.74;100.00;101825.50;5043684;28;20028;-83
2022/05/21 09:19:58;;;;;;;21.00;7.88;;;;;;;17.86;100.00;101825.63;5079792;28;20092;-79
2022/05/21 09:22:24;;;;;;;28.52;8.15;;;;;;;17.49;100.00;101828.19;5089659;28;20062;-80
2022/05/21 09:24:53;;;;;;;28.67;9.20;;;;;;;17.62;100.00;101821.34;5101528;28;20505;-81
2022/05/21 09:27:36;;;;;;;20.00;8.07;;;;;;;17.83;100.00;101825.91;5058418;28;20472;-81
2022/05/21 09:30:27;;;;;;;18.63;7.57;;;;;;;17.26;100.00;101822.91;5065494;28;20377;-79
2022/05/21 09:32:56;;;;;;;23.98;9.07;;;;;;;16.82;100.00;101816.75;5067096;28;20021;-79
2022/05/21 09:35:52;;;;;;;28.67;8.80;;;;;;;16.78;100.00;101816.16;5071855;28;20063;-80
2022/05/21 09:38:23;;;;;;;29.70;9.07;;;;;;;16.66;100.00;101825.53;5066403;28;20029;-79
2022/05/21 09:40:49;;;;;;;25.58;8.38;;;;;;;17.17;100.00;101821.00;5085019;28;20054;-79
2022/05/21 09:46:30;;;;;;;19.02;8.02;;;;;;;17.95;100.00;101815.59;5096167;28;20059;-80
2022/05/21 09:49:31;;;;;;;23.90;7.88;;;;;;;18.28;100.00;101813.34;5071455;28;20033;-79
2022/05/21 09:52:03;;;;;;;21.67;7.60;;;;;;;18.94;99.33;101819.91;5059728;28;20028;-80
2022/05/21 09:54:40;;;;;;;26.80;8.80;;;;;;;18.51;98.65;101820.34;5059675;28;20037;-80
2022/05/21 09:57:06;;;;;;;26.60;8.60;;;;;;;18.48;100.00;101817.84;5075506;28;20151;-79
2022/05/21 09:59:35;;;;;;;24.75;7.88;;;;;;;17.52;100.00;101822.38;5082543;28;20373;-79
2022/05/21 10:02:15;;;;;;;29.27;8.75;;;;;;;17.22;100.00;101827.84;5046951;28;20036;-79
2022/05/21 10:04:52;;;;;;;23.00;7.72;;;;;;;16.86;100.00;101827.44;5073834;28;20036;-80
2022/05/21 10:13:19;;;;;;;18.80;6.95;;;;;;;17.96;100.00;101836.75;5100454;28;20480;-79
2022/05/21 10:16:16;;;;;;;25.80;7.30;;;;;;;17.48;100.00;101838.41;5102394;28;20032;-80
2022/05/21 10:19:00;;;;;;;17.55;6.97;;;;;;;17.82;100.00;101827.81;5066901;28;20028;-80
2022/05/21 10:21:53;;;;;;;19.60;7.47;;;;;;;17.88;100.00;101823.59;5066633;28;20479;-80
2022/05/21 10:24:27;;;;;;;24.00;8.57;;;;;;;18.19;100.00;101821.53;5089446;28;20037;-81
2022/05/21 10:26:58;;;;;;;20.63;7.93;;;;;;;18.62;99.40;101827.59;5075363;28;20593;-81
2022/05/21 10:29:47;;;;;;;26.20;7.50;;;;;;;18.42;100.00;101825.91;5082631;28;20032;-81
2022/05/21 10:32:38;;;;;;;25.23;7.70;;;;;;;18.80;98.46;101824.91;5064434;28;20032;-81
2022/05/21 10:35:39;;;;;;;20.15;7.00;;;;;;;18.60;96.56;101824.09;5080678;28;20032;-82
2022/05/21 10:38:10;;;;;;;16.52;6.63;;;;;;;18.00;99.24;101830.78;5081813;28;20054;-81
2022/05/21 10:40:47;;;;;;;19.65;6.80;;;;;;;17.98;96.58;101826.38;5083340;28;20039;-83
2022/05/21 10:43:23;;;;;;;18.88;7.05;;;;;;;17.39;100.00;101829.06;5083091;28;20090;-82
2022/05/21 10:46:27;;;;;;;17.52;7.78;;;;;;;17.08;100.00;101833.75;5083962;28;20445;-80
2022/05/21 10:49:23;;;;;;;21.83;8.52;;;;;;;16.90;100.00;101831.69;5067233;28;20040;-80
2022/05/21 10:52:09;;;;;;;21.27;8.45;;;;;;;17.37;100.00;101830.22;5063057;28;20100;-80
2022/05/21 10:55:05;;;;;;;22.77;8.93;;;;;;;17.27;100.00;101831.06;5102245;28;20086;-81
2022/05/21 10:58:10;;;;;;;26.10;8.85;;;;;;;17.80;100.00;101835.38;5100436;28;20414;-80
2022/05/21 11:00:50;;;;;;;24.10;8.50;;;;;;;18.12;100.00;101837.03;5067324;28;20024;-81
2022/05/21 11:03:41;;;;;;;25.30;8.77;;;;;;;18.69;100.00;101833.41;5101540;28;20111;-81
2022/05/21 11:06:15;;;;;;;28.08;9.38;;;;;;;18.89;100.00;101828.72;5091309;28;20507;-80
2022/05/21 11:08:59;;;;;;;24.33;9.32;;;;;;;19.44;94.71;101831.47;5082409;28;20120;-82
2022/05/21 11:11:46;;;;;;;17.83;7.85;;;;;;;19.01;91.85;101835.81;5085032;28;20039;-82
2022/05/21 11:14:22;;;;;;;18.15;7.70;;;;;;;18.28;95.05;101838.31;5102366;28;20064;-82
2022/05/21 11:16:51;;;;;;;22.55;7.75;;;;;;;18.70;95.52;101837.94;5062764;28;20123;-81
2022/05/21 11:19:23;;;;;;;18.20;7.35;;;;;;;18.46;97.86;101843.97;5063324;28;20099;-81
2022/05/21 11:22:03;;;;;;;18.83;7.95;;;;;;;18.30;95.46;101848.25;5083770;28;20545;-80
2022/05/21 11:24:36;;;;;;;22.65;8.10;;;;;;;18.55;99.09;101848.63;5081560;28;20043;-81
2022/05/21 11:27:25;;;;;;;24.42;8.15;;;;;;;18.77;95.47;101852.94;5061417;28;20036;-80
2022/05/21 11:30:05;;;;;;;22.48;8.68;;;;;;;19.09;92.15;101851.72;5080432;28;20032;-80
2022/05/21 11:38:31;;;;;;;23.13;8.73;;;;;;;19.91;86.65;101835.16;5093026;28;20031;-82
2022/05/21 11:47:14;;;;;;;18.83;8.13;;;;;;;19.27;91.09;101822.09;5173879;27;20419;-84
2022/05/21 11:49:43;;;;;;;17.90;8.25;;;;;;;18.93;95.08;101824.59;5148444;27;20010;-83
2022/05/21 11:52:27;;;;;;;21.48;9.30;;;;;;;18.94;93.93;101831.00;5142909;27;20037;-82
2022/05/21 11:54:53;;;;;;;22.05;8.27;;;;;;;19.57;91.82;101828.31;5160363;27;20038;-83
2022/05/21 11:57:39;;;;;;;29.67;8.95;;;;;;;19.86;89.05;101818.94;5160920;27;20030;-84
2022/05/21 12:00:13;;;;;;;23.27;8.88;;;;;;;19.67;91.33;101822.69;5135330;27;20038;-85
2022/05/21 12:02:59;;;;;;;20.92;8.65;;;;;;;19.53;89.27;101823.22;5143075;27;20038;-82
2022/05/21 12:05:49;;;;;;;23.38;8.45;;;;;;;19.34;89.56;101829.81;5129403;27;20035;-84
2022/05/21 12:08:23;;;;;;;25.02;8.32;;;;;;;19.09;90.49;101822.03;5117904;28;20072;-83